sensor_id;sensor_type;location;lat;lon;timestamp;P1;durP1;ratioP1;P2;durP2;ratioP2
1174;SDS011;576;48.418;10.074;2022-12-18T00:00:04;12.40;;;11.10;;
1174;SDS011;576;48.418;10.074;2022-12-18T00:02:39;9.80;;;8.90;;
1174;SDS011;576;48.418;10.074;2022-12-18T00:05:07;10.43;;;9.40;;
1174;SDS011;576;48.418;10.074;2022-12-18T00:07:35;10.00;;;9.00;;
1174;SDS011;576;48.418;10.074;2022-12-18T00:10:05;11.10;;;10.00;;
1174;SDS011;576;48.418;10.074;2022-12-18T00:12:34;10.40;;;9.40;;
1174;SDS011;576;48.418;10.074;2022-12-18T00:15:04;10.67;;;9.70;;
1174;SDS011;576;48.418;10.074;2022-12-18T00:17:33;12.33;;;11.07;;
1174;SDS011;576;48.418;10.074;2022-12-18T00:20:01;11.47;;;9.50;;
1174;SDS011;576;48.418;10.074;2022-12-18T00:22:29;10.57;;;9.50;;
1174;SDS011;576;48.418;10.074;2022-12-18T00:24:58;10.57;;;9.47;;
1174;SDS011;576;48.418;10.074;2022-12-18T00:27:26;10.50;;;9.50;;
1174;SDS011;576;48.418;10.074;2022-12-18T00:29:54;10.43;;;9.00;;
1174;SDS011;576;48.418;10.074;2022-12-18T00:32:23;10.30;;;9.20;;
1174;SDS011;576;48.418;10.074;2022-12-18T00:34:51;9.37;;;8.47;;
1174;SDS011;576;48.418;10.074;2022-12-18T00:37:19;10.40;;;9.40;;
1174;SDS011;576;48.418;10.074;2022-12-18T00:39:49;10.57;;;9.47;;
1174;SDS011;576;48.418;10.074;2022-12-18T00:42:18;9.67;;;8.70;;
1174;SDS011;576;48.418;10.074;2022-12-18T00:45:05;10.20;;;9.20;;
1174;SDS011;576;48.418;10.074;2022-12-18T00:47:40;9.13;;;8.23;;
1174;SDS011;576;48.418;10.074;2022-12-18T00:50:08;9.07;;;8.17;;
1174;SDS011;576;48.418;10.074;2022-12-18T00:52:40;11.13;;;8.90;;
1174;SDS011;576;48.418;10.074;2022-12-18T00:55:09;11.50;;;8.77;;
1174;SDS011;576;48.418;10.074;2022-12-18T00:57:37;10.30;;;9.20;;
1174;SDS011;576;48.418;10.074;2022-12-18T01:00:06;10.90;;;9.73;;
1174;SDS011;576;48.418;10.074;2022-12-18T01:02:36;9.73;;;8.73;;
1174;SDS011;576;48.418;10.074;2022-12-18T01:05:07;10.07;;;9.07;;
1174;SDS011;576;48.418;10.074;2022-12-18T01:07:36;11.03;;;9.03;;
1174;SDS011;576;48.418;10.074;2022-12-18T01:10:05;10.77;;;9.40;;
1174;SDS011;576;48.418;10.074;2022-12-18T01:12:34;10.20;;;9.10;;
1174;SDS011;576;48.418;10.074;2022-12-18T01:15:03;11.07;;;9.47;;
1174;SDS011;576;48.418;10.074;2022-12-18T01:17:32;8.77;;;7.90;;
1174;SDS011;576;48.418;10.074;2022-12-18T01:20:01;8.30;;;7.40;;
1174;SDS011;576;48.418;10.074;2022-12-18T01:22:30;9.10;;;8.20;;
1174;SDS011;576;48.418;10.074;2022-12-18T01:24:59;9.10;;;8.30;;
1174;SDS011;576;48.418;10.074;2022-12-18T01:27:27;10.17;;;9.17;;
1174;SDS011;576;48.418;10.074;2022-12-18T01:29:55;9.90;;;8.23;;
1174;SDS011;576;48.418;10.074;2022-12-18T01:32:24;11.17;;;9.57;;
1174;SDS011;576;48.418;10.074;2022-12-18T01:34:52;10.60;;;9.50;;
1174;SDS011;576;48.418;10.074;2022-12-18T01:37:21;12.50;;;8.93;;
1174;SDS011;576;48.418;10.074;2022-12-18T01:39:50;10.70;;;9.37;;
1174;SDS011;576;48.418;10.074;2022-12-18T01:42:20;10.20;;;9.17;;
1174;SDS011;576;48.418;10.074;2022-12-18T01:44:57;10.53;;;9.30;;
1174;SDS011;576;48.418;10.074;2022-12-18T01:47:29;9.10;;;8.20;;
1174;SDS011;576;48.418;10.074;2022-12-18T01:50:00;10.13;;;8.67;;
1174;SDS011;576;48.418;10.074;2022-12-18T01:52:31;10.37;;;9.37;;
1174;SDS011;576;48.418;10.074;2022-12-18T01:55:03;10.70;;;9.57;;
1174;SDS011;576;48.418;10.074;2022-12-18T01:57:33;9.93;;;9.03;;
1174;SDS011;576;48.418;10.074;2022-12-18T02:00:03;10.03;;;9.10;;
1174;SDS011;576;48.418;10.074;2022-12-18T02:02:43;9.53;;;8.53;;
1174;SDS011;576;48.418;10.074;2022-12-18T02:05:13;10.33;;;8.57;;
1174;SDS011;576;48.418;10.074;2022-12-18T02:07:46;10.33;;;9.33;;
1174;SDS011;576;48.418;10.074;2022-12-18T02:10:27;10.10;;;9.00;;
1174;SDS011;576;48.418;10.074;2022-12-18T02:13:01;10.60;;;8.93;;
1174;SDS011;576;48.418;10.074;2022-12-18T02:15:38;8.20;;;7.40;;
1174;SDS011;576;48.418;10.074;2022-12-18T02:18:11;9.40;;;8.40;;
1174;SDS011;576;48.418;10.074;2022-12-18T02:20:47;9.00;;;7.80;;
1174;SDS011;576;48.418;10.074;2022-12-18T02:23:24;8.80;;;7.90;;
1174;SDS011;576;48.418;10.074;2022-12-18T02:26:13;9.73;;;8.73;;
1174;SDS011;576;48.418;10.074;2022-12-18T02:28:45;10.30;;;9.30;;
1174;SDS011;576;48.418;10.074;2022-12-18T02:31:17;9.60;;;8.60;;
1174;SDS011;576;48.418;10.074;2022-12-18T02:33:52;9.70;;;8.80;;
1174;SDS011;576;48.418;10.074;2022-12-18T02:36:26;9.07;;;8.17;;
1174;SDS011;576;48.418;10.074;2022-12-18T02:38:56;8.27;;;7.50;;
1174;SDS011;576;48.418;10.074;2022-12-18T02:41:28;10.23;;;8.53;;
1174;SDS011;576;48.418;10.074;2022-12-18T02:44:00;9.70;;;8.80;;
1174;SDS011;576;48.418;10.074;2022-12-18T02:46:34;9.57;;;8.60;;
1174;SDS011;576;48.418;10.074;2022-12-18T02:49:12;9.13;;;7.93;;
1174;SDS011;576;48.418;10.074;2022-12-18T02:51:50;10.47;;;8.73;;
1174;SDS011;576;48.418;10.074;2022-12-18T02:54:32;10.00;;;8.20;;
1174;SDS011;576;48.418;10.074;2022-12-18T02:57:13;9.07;;;8.20;;
1174;SDS011;576;48.418;10.074;2022-12-18T02:59:49;9.10;;;8.20;;
1174;SDS011;576;48.418;10.074;2022-12-18T03:02:26;10.33;;;8.03;;
1174;SDS011;576;48.418;10.074;2022-12-18T03:05:03;8.50;;;7.63;;
1174;SDS011;576;48.418;10.074;2022-12-18T03:07:37;9.60;;;8.60;;
1174;SDS011;576;48.418;10.074;2022-12-18T03:10:11;10.13;;;9.10;;
1174;SDS011;576;48.418;10.074;2022-12-18T03:12:45;9.30;;;7.80;;
1174;SDS011;576;48.418;10.074;2022-12-18T03:15:19;10.17;;;8.53;;
1174;SDS011;576;48.418;10.074;2022-12-18T03:17:59;8.50;;;7.70;;
1174;SDS011;576;48.418;10.074;2022-12-18T03:20:32;9.57;;;8.53;;
1174;SDS011;576;48.418;10.074;2022-12-18T03:23:04;9.87;;;8.93;;
1174;SDS011;576;48.418;10.074;2022-12-18T03:25:37;8.53;;;7.73;;
1174;SDS011;576;48.418;10.074;2022-12-18T03:28:10;9.20;;;8.30;;
1174;SDS011;576;48.418;10.074;2022-12-18T03:30:43;9.83;;;8.57;;
1174;SDS011;576;48.418;10.074;2022-12-18T03:33:14;9.90;;;8.93;;
1174;SDS011;576;48.418;10.074;2022-12-18T03:35:49;9.63;;;8.63;;
1174;SDS011;576;48.418;10.074;2022-12-18T03:38:17;9.13;;;8.23;;
1174;SDS011;576;48.418;10.074;2022-12-18T03:40:52;9.77;;;8.77;;
1174;SDS011;576;48.418;10.074;2022-12-18T03:43:32;10.50;;;9.50;;
1174;SDS011;576;48.418;10.074;2022-12-18T03:46:11;10.73;;;8.40;;
1174;SDS011;576;48.418;10.074;2022-12-18T03:48:45;10.10;;;8.57;;
1174;SDS011;576;48.418;10.074;2022-12-18T03:51:18;9.83;;;8.57;;
1174;SDS011;576;48.418;10.074;2022-12-18T03:53:53;9.30;;;8.50;;
1174;SDS011;576;48.418;10.074;2022-12-18T03:56:29;9.83;;;8.80;;
1174;SDS011;576;48.418;10.074;2022-12-18T03:59:03;10.10;;;8.93;;
1174;SDS011;576;48.418;10.074;2022-12-18T04:01:34;12.00;;;9.87;;
1174;SDS011;576;48.418;10.074;2022-12-18T04:04:06;11.00;;;9.10;;
1174;SDS011;576;48.418;10.074;2022-12-18T04:06:37;10.10;;;9.10;;
1174;SDS011;576;48.418;10.074;2022-12-18T04:09:10;9.77;;;8.60;;
1174;SDS011;576;48.418;10.074;2022-12-18T04:11:42;11.63;;;9.30;;
1174;SDS011;576;48.418;10.074;2022-12-18T04:14:14;9.67;;;8.37;;
1174;SDS011;576;48.418;10.074;2022-12-18T04:16:46;9.90;;;8.20;;
1174;SDS011;576;48.418;10.074;2022-12-18T04:19:16;10.30;;;9.40;;
1174;SDS011;576;48.418;10.074;2022-12-18T04:21:48;10.50;;;9.13;;
1174;SDS011;576;48.418;10.074;2022-12-18T04:24:16;9.37;;;8.40;;
1174;SDS011;576;48.418;10.074;2022-12-18T04:26:55;10.57;;;9.43;;
1174;SDS011;576;48.418;10.074;2022-12-18T04:29:27;9.73;;;8.70;;
1174;SDS011;576;48.418;10.074;2022-12-18T04:31:56;9.17;;;8.27;;
1174;SDS011;576;48.418;10.074;2022-12-18T04:34:26;9.40;;;8.50;;
1174;SDS011;576;48.418;10.074;2022-12-18T04:36:56;9.83;;;9.00;;
1174;SDS011;576;48.418;10.074;2022-12-18T04:39:24;11.20;;;9.07;;
1174;SDS011;576;48.418;10.074;2022-12-18T04:41:56;9.77;;;8.73;;
1174;SDS011;576;48.418;10.074;2022-12-18T04:44:28;9.60;;;8.60;;
1174;SDS011;576;48.418;10.074;2022-12-18T04:46:56;10.43;;;9.33;;
1174;SDS011;576;48.418;10.074;2022-12-18T04:49:24;9.67;;;8.70;;
1174;SDS011;576;48.418;10.074;2022-12-18T04:51:52;10.60;;;9.10;;
1174;SDS011;576;48.418;10.074;2022-12-18T04:54:21;11.60;;;10.23;;
1174;SDS011;576;48.418;10.074;2022-12-18T04:56:49;9.77;;;8.77;;
1174;SDS011;576;48.418;10.074;2022-12-18T04:59:17;11.23;;;10.00;;
1174;SDS011;576;48.418;10.074;2022-12-18T05:01:47;10.73;;;9.27;;
1174;SDS011;576;48.418;10.074;2022-12-18T05:04:15;9.27;;;8.37;;
1174;SDS011;576;48.418;10.074;2022-12-18T05:06:44;8.80;;;7.90;;
1174;SDS011;576;48.418;10.074;2022-12-18T05:09:12;9.17;;;8.20;;
1174;SDS011;576;48.418;10.074;2022-12-18T05:11:40;9.93;;;8.77;;
1174;SDS011;576;48.418;10.074;2022-12-18T05:14:08;9.10;;;8.20;;
1174;SDS011;576;48.418;10.074;2022-12-18T05:16:37;12.57;;;9.10;;
1174;SDS011;576;48.418;10.074;2022-12-18T05:19:06;9.50;;;8.50;;
1174;SDS011;576;48.418;10.074;2022-12-18T05:21:34;9.90;;;8.90;;
1174;SDS011;576;48.418;10.074;2022-12-18T05:24:03;9.47;;;8.47;;
1174;SDS011;576;48.418;10.074;2022-12-18T05:26:31;10.23;;;8.80;;
1174;SDS011;576;48.418;10.074;2022-12-18T05:28:59;12.57;;;11.37;;
1174;SDS011;576;48.418;10.074;2022-12-18T05:31:28;9.83;;;8.80;;
1174;SDS011;576;48.418;10.074;2022-12-18T05:34:02;10.57;;;9.47;;
1174;SDS011;576;48.418;10.074;2022-12-18T05:36:32;9.13;;;8.17;;
1174;SDS011;576;48.418;10.074;2022-12-18T05:39:00;11.50;;;9.30;;
1174;SDS011;576;48.418;10.074;2022-12-18T05:41:29;10.33;;;9.10;;
1174;SDS011;576;48.418;10.074;2022-12-18T05:43:57;9.03;;;8.13;;
1174;SDS011;576;48.418;10.074;2022-12-18T05:46:25;11.03;;;9.90;;
1174;SDS011;576;48.418;10.074;2022-12-18T05:48:54;8.97;;;7.60;;
1174;SDS011;576;48.418;10.074;2022-12-18T05:51:22;9.60;;;8.60;;
1174;SDS011;576;48.418;10.074;2022-12-18T05:53:52;10.30;;;8.77;;
1174;SDS011;576;48.418;10.074;2022-12-18T05:56:20;9.77;;;8.80;;
1174;SDS011;576;48.418;10.074;2022-12-18T05:58:51;11.87;;;10.67;;
1174;SDS011;576;48.418;10.074;2022-12-18T06:01:20;9.03;;;8.13;;
1174;SDS011;576;48.418;10.074;2022-12-18T06:03:51;9.60;;;8.47;;
1174;SDS011;576;48.418;10.074;2022-12-18T06:06:20;9.80;;;8.80;;
1174;SDS011;576;48.418;10.074;2022-12-18T06:08:49;12.07;;;8.80;;
1174;SDS011;576;48.418;10.074;2022-12-18T06:11:20;11.27;;;9.33;;
1174;SDS011;576;48.418;10.074;2022-12-18T06:13:50;8.50;;;7.70;;
1174;SDS011;576;48.418;10.074;2022-12-18T06:16:24;10.00;;;8.20;;
1174;SDS011;576;48.418;10.074;2022-12-18T06:18:53;9.33;;;8.30;;
1174;SDS011;576;48.418;10.074;2022-12-18T06:21:23;10.30;;;8.47;;
1174;SDS011;576;48.418;10.074;2022-12-18T06:23:52;9.63;;;8.60;;
1174;SDS011;576;48.418;10.074;2022-12-18T06:26:20;10.93;;;8.50;;
1174;SDS011;576;48.418;10.074;2022-12-18T06:28:54;9.47;;;8.03;;
1174;SDS011;576;48.418;10.074;2022-12-18T06:31:22;9.47;;;8.37;;
1174;SDS011;576;48.418;10.074;2022-12-18T06:33:50;10.80;;;9.70;;
1174;SDS011;576;48.418;10.074;2022-12-18T06:36:18;11.17;;;10.03;;
1174;SDS011;576;48.418;10.074;2022-12-18T06:38:47;11.20;;;9.97;;
1174;SDS011;576;48.418;10.074;2022-12-18T06:41:18;10.17;;;9.17;;
1174;SDS011;576;48.418;10.074;2022-12-18T06:43:47;13.73;;;9.90;;
1174;SDS011;576;48.418;10.074;2022-12-18T06:46:18;10.07;;;9.07;;
1174;SDS011;576;48.418;10.074;2022-12-18T06:48:47;11.50;;;8.97;;
1174;SDS011;576;48.418;10.074;2022-12-18T06:51:18;10.30;;;9.13;;
1174;SDS011;576;48.418;10.074;2022-12-18T06:53:46;9.73;;;8.50;;
1174;SDS011;576;48.418;10.074;2022-12-18T06:56:15;11.67;;;9.53;;
1174;SDS011;576;48.418;10.074;2022-12-18T06:58:44;10.13;;;9.10;;
1174;SDS011;576;48.418;10.074;2022-12-18T07:01:15;13.00;;;9.90;;
1174;SDS011;576;48.418;10.074;2022-12-18T07:03:43;12.07;;;9.50;;
1174;SDS011;576;48.418;10.074;2022-12-18T07:06:12;12.37;;;9.90;;
1174;SDS011;576;48.418;10.074;2022-12-18T07:08:42;10.03;;;8.67;;
1174;SDS011;576;48.418;10.074;2022-12-18T07:11:10;11.43;;;9.30;;
1174;SDS011;576;48.418;10.074;2022-12-18T07:13:40;14.13;;;10.10;;
1174;SDS011;576;48.418;10.074;2022-12-18T07:16:09;11.53;;;9.40;;
1174;SDS011;576;48.418;10.074;2022-12-18T07:18:46;11.07;;;8.70;;
1174;SDS011;576;48.418;10.074;2022-12-18T07:21:15;10.10;;;8.67;;
1174;SDS011;576;48.418;10.074;2022-12-18T07:23:44;9.53;;;8.57;;
1174;SDS011;576;48.418;10.074;2022-12-18T07:26:15;11.20;;;8.33;;
1174;SDS011;576;48.418;10.074;2022-12-18T07:28:45;9.83;;;8.80;;
1174;SDS011;576;48.418;10.074;2022-12-18T07:31:15;9.43;;;8.30;;
1174;SDS011;576;48.418;10.074;2022-12-18T07:33:46;10.40;;;9.20;;
1174;SDS011;576;48.418;10.074;2022-12-18T07:36:15;9.73;;;8.70;;
1174;SDS011;576;48.418;10.074;2022-12-18T07:38:46;11.40;;;9.97;;
1174;SDS011;576;48.418;10.074;2022-12-18T07:41:14;12.43;;;9.83;;
1174;SDS011;576;48.418;10.074;2022-12-18T07:43:43;10.67;;;9.30;;
1174;SDS011;576;48.418;10.074;2022-12-18T07:46:13;10.23;;;9.13;;
1174;SDS011;576;48.418;10.074;2022-12-18T07:48:42;10.40;;;8.60;;
1174;SDS011;576;48.418;10.074;2022-12-18T07:51:14;8.70;;;7.90;;
1174;SDS011;576;48.418;10.074;2022-12-18T07:53:43;11.20;;;10.00;;
1174;SDS011;576;48.418;10.074;2022-12-18T07:56:15;9.00;;;7.93;;
1174;SDS011;576;48.418;10.074;2022-12-18T07:58:53;10.83;;;9.70;;
1174;SDS011;576;48.418;10.074;2022-12-18T08:01:23;9.63;;;8.60;;
1174;SDS011;576;48.418;10.074;2022-12-18T08:03:51;11.93;;;9.60;;
1174;SDS011;576;48.418;10.074;2022-12-18T08:06:20;10.90;;;9.43;;
1174;SDS011;576;48.418;10.074;2022-12-18T08:08:50;9.63;;;8.60;;
1174;SDS011;576;48.418;10.074;2022-12-18T08:11:19;10.43;;;8.37;;
1174;SDS011;576;48.418;10.074;2022-12-18T08:13:47;10.60;;;9.00;;
1174;SDS011;576;48.418;10.074;2022-12-18T08:16:15;11.00;;;8.33;;
1174;SDS011;576;48.418;10.074;2022-12-18T08:18:46;10.80;;;9.70;;
1174;SDS011;576;48.418;10.074;2022-12-18T08:21:16;12.80;;;9.70;;
1174;SDS011;576;48.418;10.074;2022-12-18T08:23:47;11.53;;;8.40;;
1174;SDS011;576;48.418;10.074;2022-12-18T08:26:17;9.27;;;8.33;;
1174;SDS011;576;48.418;10.074;2022-12-18T08:28:46;11.57;;;8.60;;
1174;SDS011;576;48.418;10.074;2022-12-18T08:31:16;10.43;;;8.40;;
1174;SDS011;576;48.418;10.074;2022-12-18T08:33:49;10.47;;;9.37;;
1174;SDS011;576;48.418;10.074;2022-12-18T08:36:17;9.13;;;8.20;;
1174;SDS011;576;48.418;10.074;2022-12-18T08:38:46;10.87;;;8.20;;
1174;SDS011;576;48.418;10.074;2022-12-18T08:41:15;10.33;;;8.33;;
1174;SDS011;576;48.418;10.074;2022-12-18T08:43:44;9.47;;;8.30;;
1174;SDS011;576;48.418;10.074;2022-12-18T08:46:34;10.80;;;9.80;;
1174;SDS011;576;48.418;10.074;2022-12-18T08:49:05;10.47;;;8.50;;
1174;SDS011;576;48.418;10.074;2022-12-18T08:51:36;8.97;;;8.07;;
1174;SDS011;576;48.418;10.074;2022-12-18T08:54:05;9.80;;;8.80;;
1174;SDS011;576;48.418;10.074;2022-12-18T08:56:34;10.30;;;8.73;;
1174;SDS011;576;48.418;10.074;2022-12-18T08:59:02;8.50;;;7.60;;
1174;SDS011;576;48.418;10.074;2022-12-18T09:01:31;10.50;;;8.90;;
1174;SDS011;576;48.418;10.074;2022-12-18T09:04:00;9.10;;;8.17;;
1174;SDS011;576;48.418;10.074;2022-12-18T09:06:31;9.27;;;8.30;;
1174;SDS011;576;48.418;10.074;2022-12-18T09:08:59;10.80;;;8.60;;
1174;SDS011;576;48.418;10.074;2022-12-18T09:11:28;10.03;;;8.37;;
1174;SDS011;576;48.418;10.074;2022-12-18T09:13:56;10.23;;;8.10;;
1174;SDS011;576;48.418;10.074;2022-12-18T09:16:25;9.70;;;8.67;;
1174;SDS011;576;48.418;10.074;2022-12-18T09:18:58;9.27;;;8.30;;
1174;SDS011;576;48.418;10.074;2022-12-18T09:21:28;9.20;;;8.30;;
1174;SDS011;576;48.418;10.074;2022-12-18T09:24:03;11.90;;;9.73;;
1174;SDS011;576;48.418;10.074;2022-12-18T09:26:34;8.97;;;7.83;;
1174;SDS011;576;48.418;10.074;2022-12-18T09:29:05;10.00;;;9.00;;
1174;SDS011;576;48.418;10.074;2022-12-18T09:31:34;9.77;;;8.77;;
1174;SDS011;576;48.418;10.074;2022-12-18T09:34:03;10.83;;;8.30;;
1174;SDS011;576;48.418;10.074;2022-12-18T09:36:32;11.30;;;8.43;;
1174;SDS011;576;48.418;10.074;2022-12-18T09:39:00;10.60;;;8.47;;
1174;SDS011;576;48.418;10.074;2022-12-18T09:41:42;8.47;;;7.70;;
1174;SDS011;576;48.418;10.074;2022-12-18T09:44:15;10.07;;;8.27;;
1174;SDS011;576;48.418;10.074;2022-12-18T09:46:49;8.30;;;7.37;;
1174;SDS011;576;48.418;10.074;2022-12-18T09:49:21;9.60;;;7.70;;
1174;SDS011;576;48.418;10.074;2022-12-18T09:51:54;10.90;;;7.07;;
1174;SDS011;576;48.418;10.074;2022-12-18T09:54:25;8.73;;;7.93;;
1174;SDS011;576;48.418;10.074;2022-12-18T09:57:00;8.10;;;7.30;;
1174;SDS011;576;48.418;10.074;2022-12-18T09:59:30;9.03;;;7.87;;
1174;SDS011;576;48.418;10.074;2022-12-18T10:02:11;8.80;;;7.90;;
1174;SDS011;576;48.418;10.074;2022-12-18T10:04:42;8.87;;;7.90;;
1174;SDS011;576;48.418;10.074;2022-12-18T10:07:13;9.70;;;8.47;;
1174;SDS011;576;48.418;10.074;2022-12-18T10:09:49;11.17;;;8.10;;
1174;SDS011;576;48.418;10.074;2022-12-18T10:12:26;8.47;;;7.67;;
1174;SDS011;576;48.418;10.074;2022-12-18T10:15:03;8.60;;;7.73;;
1174;SDS011;576;48.418;10.074;2022-12-18T10:17:41;7.50;;;6.70;;
1174;SDS011;576;48.418;10.074;2022-12-18T10:20:18;7.93;;;6.90;;
1174;SDS011;576;48.418;10.074;2022-12-18T10:22:53;8.83;;;8.00;;
1174;SDS011;576;48.418;10.074;2022-12-18T10:25:31;8.60;;;7.73;;
1174;SDS011;576;48.418;10.074;2022-12-18T10:28:09;8.93;;;7.57;;
1174;SDS011;576;48.418;10.074;2022-12-18T10:30:40;7.87;;;6.90;;
1174;SDS011;576;48.418;10.074;2022-12-18T10:33:10;7.57;;;6.83;;
1174;SDS011;576;48.418;10.074;2022-12-18T10:35:41;9.30;;;7.50;;
1174;SDS011;576;48.418;10.074;2022-12-18T10:38:21;8.53;;;7.20;;
1174;SDS011;576;48.418;10.074;2022-12-18T10:40:52;7.53;;;6.83;;
1174;SDS011;576;48.418;10.074;2022-12-18T10:43:25;9.20;;;7.70;;
1174;SDS011;576;48.418;10.074;2022-12-18T10:45:58;7.50;;;6.63;;
1174;SDS011;576;48.418;10.074;2022-12-18T10:48:29;10.40;;;7.27;;
1174;SDS011;576;48.418;10.074;2022-12-18T10:50:58;7.67;;;6.97;;
1174;SDS011;576;48.418;10.074;2022-12-18T10:53:38;8.27;;;7.00;;
1174;SDS011;576;48.418;10.074;2022-12-18T10:56:09;11.00;;;7.13;;
1174;SDS011;576;48.418;10.074;2022-12-18T10:58:39;7.53;;;6.70;;
1174;SDS011;576;48.418;10.074;2022-12-18T11:01:09;7.03;;;6.27;;
1174;SDS011;576;48.418;10.074;2022-12-18T11:03:39;6.87;;;6.17;;
1174;SDS011;576;48.418;10.074;2022-12-18T11:06:10;6.57;;;5.97;;
1174;SDS011;576;48.418;10.074;2022-12-18T11:08:39;6.53;;;5.83;;
1174;SDS011;576;48.418;10.074;2022-12-18T11:11:15;7.63;;;6.90;;
1174;SDS011;576;48.418;10.074;2022-12-18T11:14:02;6.83;;;5.80;;
1174;SDS011;576;48.418;10.074;2022-12-18T11:16:33;7.57;;;6.23;;
1174;SDS011;576;48.418;10.074;2022-12-18T11:19:13;8.43;;;6.13;;
1174;SDS011;576;48.418;10.074;2022-12-18T11:21:48;7.40;;;6.00;;
1174;SDS011;576;48.418;10.074;2022-12-18T11:24:19;6.57;;;5.97;;
1174;SDS011;576;48.418;10.074;2022-12-18T11:26:54;6.80;;;6.10;;
1174;SDS011;576;48.418;10.074;2022-12-18T11:29:28;6.30;;;5.70;;
1174;SDS011;576;48.418;10.074;2022-12-18T11:35:03;6.07;;;5.43;;
1174;SDS011;576;48.418;10.074;2022-12-18T11:37:39;6.00;;;5.40;;
1174;SDS011;576;48.418;10.074;2022-12-18T11:40:11;7.37;;;6.63;;
1174;SDS011;576;48.418;10.074;2022-12-18T11:42:46;9.07;;;5.63;;
1174;SDS011;576;48.418;10.074;2022-12-18T11:45:28;6.83;;;6.20;;
1174;SDS011;576;48.418;10.074;2022-12-18T11:47:59;6.17;;;5.40;;
1174;SDS011;576;48.418;10.074;2022-12-18T11:50:33;6.63;;;5.73;;
1174;SDS011;576;48.418;10.074;2022-12-18T11:53:11;6.80;;;6.20;;
1174;SDS011;576;48.418;10.074;2022-12-18T11:55:41;8.07;;;5.90;;
1174;SDS011;576;48.418;10.074;2022-12-18T11:58:19;7.90;;;6.50;;
1174;SDS011;576;48.418;10.074;2022-12-18T12:01:00;6.00;;;5.40;;
1174;SDS011;576;48.418;10.074;2022-12-18T12:03:50;9.47;;;6.30;;
1174;SDS011;576;48.418;10.074;2022-12-18T12:06:32;9.00;;;5.63;;
1174;SDS011;576;48.418;10.074;2022-12-18T12:09:08;8.37;;;5.97;;
1174;SDS011;576;48.418;10.074;2022-12-18T12:11:51;6.10;;;5.50;;
1174;SDS011;576;48.418;10.074;2022-12-18T12:14:33;10.93;;;5.90;;
1174;SDS011;576;48.418;10.074;2022-12-18T12:17:11;7.27;;;5.70;;
1174;SDS011;576;48.418;10.074;2022-12-18T12:19:47;7.47;;;5.83;;
1174;SDS011;576;48.418;10.074;2022-12-18T12:22:22;7.60;;;5.27;;
1174;SDS011;576;48.418;10.074;2022-12-18T12:25:02;6.83;;;5.00;;
1174;SDS011;576;48.418;10.074;2022-12-18T12:27:45;6.60;;;5.93;;
1174;SDS011;576;48.418;10.074;2022-12-18T12:30:24;6.10;;;5.20;;
1174;SDS011;576;48.418;10.074;2022-12-18T12:33:08;7.17;;;5.37;;
1174;SDS011;576;48.418;10.074;2022-12-18T12:35:51;7.43;;;6.07;;
1174;SDS011;576;48.418;10.074;2022-12-18T12:38:28;5.93;;;5.33;;
1174;SDS011;576;48.418;10.074;2022-12-18T12:41:02;7.07;;;6.33;;
1174;SDS011;576;48.418;10.074;2022-12-18T12:43:53;5.87;;;5.30;;
1174;SDS011;576;48.418;10.074;2022-12-18T12:46:25;6.63;;;6.03;;
1174;SDS011;576;48.418;10.074;2022-12-18T12:48:56;6.53;;;5.30;;
1174;SDS011;576;48.418;10.074;2022-12-18T12:51:28;7.70;;;6.13;;
1174;SDS011;576;48.418;10.074;2022-12-18T12:53:58;6.33;;;5.83;;
1174;SDS011;576;48.418;10.074;2022-12-18T12:56:31;5.80;;;5.20;;
1174;SDS011;576;48.418;10.074;2022-12-18T12:59:10;5.87;;;4.93;;
1174;SDS011;576;48.418;10.074;2022-12-18T13:01:48;5.30;;;4.80;;
1174;SDS011;576;48.418;10.074;2022-12-18T13:04:26;6.27;;;5.60;;
1174;SDS011;576;48.418;10.074;2022-12-18T13:07:03;6.00;;;5.10;;
1174;SDS011;576;48.418;10.074;2022-12-18T13:10:10;5.70;;;5.10;;
1174;SDS011;576;48.418;10.074;2022-12-18T13:12:54;8.10;;;5.47;;
1174;SDS011;576;48.418;10.074;2022-12-18T13:15:24;6.23;;;5.40;;
1174;SDS011;576;48.418;10.074;2022-12-18T13:18:06;5.60;;;5.07;;
1174;SDS011;576;48.418;10.074;2022-12-18T13:20:47;6.43;;;5.20;;
1174;SDS011;576;48.418;10.074;2022-12-18T13:23:40;4.83;;;4.43;;
1174;SDS011;576;48.418;10.074;2022-12-18T13:26:28;4.97;;;4.57;;
1174;SDS011;576;48.418;10.074;2022-12-18T13:29:04;6.10;;;5.37;;
1174;SDS011;576;48.418;10.074;2022-12-18T13:31:58;5.07;;;4.67;;
1174;SDS011;576;48.418;10.074;2022-12-18T13:34:28;6.30;;;5.00;;
1174;SDS011;576;48.418;10.074;2022-12-18T13:43:32;5.80;;;5.23;;
1174;SDS011;576;48.418;10.074;2022-12-18T13:46:18;5.30;;;4.57;;
1174;SDS011;576;48.418;10.074;2022-12-18T13:48:52;5.73;;;5.17;;
1174;SDS011;576;48.418;10.074;2022-12-18T13:51:24;5.00;;;4.50;;
1174;SDS011;576;48.418;10.074;2022-12-18T13:53:53;7.70;;;4.80;;
1174;SDS011;576;48.418;10.074;2022-12-18T13:56:25;5.27;;;4.77;;
1174;SDS011;576;48.418;10.074;2022-12-18T13:59:17;5.30;;;4.87;;
1174;SDS011;576;48.418;10.074;2022-12-18T14:01:52;6.20;;;5.03;;
1174;SDS011;576;48.418;10.074;2022-12-18T14:04:24;5.60;;;5.10;;
1174;SDS011;576;48.418;10.074;2022-12-18T14:06:57;5.60;;;5.10;;
1174;SDS011;576;48.418;10.074;2022-12-18T14:09:30;5.70;;;5.20;;
1174;SDS011;576;48.418;10.074;2022-12-18T14:12:02;5.87;;;5.00;;
1174;SDS011;576;48.418;10.074;2022-12-18T14:14:51;5.27;;;4.77;;
1174;SDS011;576;48.418;10.074;2022-12-18T14:17:22;5.73;;;4.67;;
1174;SDS011;576;48.418;10.074;2022-12-18T14:19:51;5.30;;;4.87;;
1174;SDS011;576;48.418;10.074;2022-12-18T14:22:20;6.27;;;5.23;;
1174;SDS011;576;48.418;10.074;2022-12-18T14:25:04;5.27;;;4.70;;
1174;SDS011;576;48.418;10.074;2022-12-18T14:27:41;5.17;;;4.77;;
1174;SDS011;576;48.418;10.074;2022-12-18T14:33:03;5.17;;;4.53;;
1174;SDS011;576;48.418;10.074;2022-12-18T14:35:32;6.10;;;5.00;;
1174;SDS011;576;48.418;10.074;2022-12-18T14:38:18;5.43;;;4.93;;
1174;SDS011;576;48.418;10.074;2022-12-18T14:40:53;5.43;;;4.93;;
1174;SDS011;576;48.418;10.074;2022-12-18T14:43:28;5.70;;;5.20;;
1174;SDS011;576;48.418;10.074;2022-12-18T14:45:59;6.00;;;5.50;;
1174;SDS011;576;48.418;10.074;2022-12-18T14:48:36;6.70;;;5.40;;
1174;SDS011;576;48.418;10.074;2022-12-18T14:51:06;5.90;;;5.30;;
1174;SDS011;576;48.418;10.074;2022-12-18T14:53:44;6.03;;;4.67;;
1174;SDS011;576;48.418;10.074;2022-12-18T14:56:20;4.27;;;3.97;;
1174;SDS011;576;48.418;10.074;2022-12-18T14:58:51;5.40;;;4.90;;
1174;SDS011;576;48.418;10.074;2022-12-18T15:01:22;11.00;;;4.93;;
1174;SDS011;576;48.418;10.074;2022-12-18T15:03:54;5.67;;;5.17;;
1174;SDS011;576;48.418;10.074;2022-12-18T15:06:25;5.80;;;5.23;;
1174;SDS011;576;48.418;10.074;2022-12-18T15:08:59;5.83;;;5.17;;
1174;SDS011;576;48.418;10.074;2022-12-18T15:11:33;5.87;;;4.37;;
1174;SDS011;576;48.418;10.074;2022-12-18T15:17:02;5.80;;;4.63;;
1174;SDS011;576;48.418;10.074;2022-12-18T15:19:38;6.27;;;5.10;;
1174;SDS011;576;48.418;10.074;2022-12-18T15:22:22;5.07;;;4.57;;
1174;SDS011;576;48.418;10.074;2022-12-18T15:24:53;5.10;;;4.60;;
1174;SDS011;576;48.418;10.074;2022-12-18T15:27:26;5.40;;;4.90;;
1174;SDS011;576;48.418;10.074;2022-12-18T15:30:16;5.00;;;4.57;;
1174;SDS011;576;48.418;10.074;2022-12-18T15:32:50;5.47;;;4.37;;
1174;SDS011;576;48.418;10.074;2022-12-18T15:35:21;5.90;;;4.50;;
1174;SDS011;576;48.418;10.074;2022-12-18T15:37:51;5.00;;;4.47;;
1174;SDS011;576;48.418;10.074;2022-12-18T15:40:20;4.87;;;4.37;;
1174;SDS011;576;48.418;10.074;2022-12-18T15:42:51;5.40;;;5.00;;
1174;SDS011;576;48.418;10.074;2022-12-18T15:45:38;4.97;;;4.50;;
1174;SDS011;576;48.418;10.074;2022-12-18T15:48:15;5.10;;;4.70;;
1174;SDS011;576;48.418;10.074;2022-12-18T15:50:49;5.30;;;4.30;;
1174;SDS011;576;48.418;10.074;2022-12-18T15:53:18;4.97;;;4.57;;
1174;SDS011;576;48.418;10.074;2022-12-18T15:55:46;5.37;;;4.83;;
1174;SDS011;576;48.418;10.074;2022-12-18T15:58:32;4.77;;;4.37;;